createdAt,value
2018-01-08T00:01:00.236Z,92.90
2018-01-08T00:03:27.815Z,92.90
2018-01-08T00:05:55.368Z,92.90
2018-01-08T00:08:22.957Z,93.00
2018-01-08T00:10:50.505Z,93.00
2018-01-08T00:13:18.095Z,93.00
2018-01-08T00:15:45.649Z,93.00
2018-01-08T00:18:13.245Z,93.00
2018-01-08T00:20:40.810Z,93.00
2018-01-08T00:23:08.393Z,92.90
2018-01-08T00:25:35.988Z,92.80
2018-01-08T00:28:03.532Z,93.00
2018-01-08T00:30:31.113Z,92.80
2018-01-08T00:32:58.685Z,92.30
2018-01-08T00:35:26.256Z,92.40
2018-01-08T00:37:53.797Z,92.60
2018-01-08T00:40:21.376Z,92.70
2018-01-08T00:42:48.951Z,92.60
2018-01-08T00:45:16.540Z,92.60
2018-01-08T00:47:44.093Z,92.60
2018-01-08T00:50:11.674Z,92.70
2018-01-08T00:52:39.238Z,92.70
2018-01-08T00:55:06.804Z,92.80
2018-01-08T00:57:34.388Z,92.70
2018-01-08T01:00:01.940Z,92.60
2018-01-08T01:02:29.519Z,92.60
2018-01-08T01:04:57.071Z,92.60
2018-01-08T01:07:25.400Z,92.90
2018-01-08T01:09:52.965Z,92.90
2018-01-08T01:12:20.536Z,92.90
2018-01-08T01:14:48.109Z,93.00
2018-01-08T01:17:16.448Z,92.70
2018-01-08T01:19:43.993Z,92.70
2018-01-08T01:22:12.329Z,92.60
2018-01-08T01:24:40.650Z,92.70
2018-01-08T01:27:08.245Z,92.70
2018-01-08T01:29:35.808Z,92.80
2018-01-08T01:32:03.363Z,92.80
2018-01-08T01:34:31.360Z,92.70
2018-01-08T01:36:58.908Z,92.70
2018-01-08T01:39:26.481Z,92.80
2018-01-08T01:41:54.032Z,92.80
2018-01-08T01:44:22.369Z,92.90
2018-01-08T01:46:49.921Z,92.80
2018-01-08T01:49:21.265Z,92.80
2018-01-08T01:51:48.838Z,92.80
2018-01-08T01:54:16.424Z,92.80
2018-01-08T01:56:44.017Z,92.80
2018-01-08T01:59:11.578Z,92.80
2018-01-08T02:01:39.197Z,92.90
2018-01-08T02:04:06.756Z,93.00
2018-01-08T02:06:34.335Z,92.80
2018-01-08T02:09:01.885Z,92.90
2018-01-08T02:11:29.484Z,92.90
2018-01-08T02:13:57.051Z,93.10
2018-01-08T02:16:24.645Z,93.10
2018-01-08T02:18:52.962Z,93.10
2018-01-08T02:21:20.517Z,93.10
2018-01-08T02:23:48.084Z,93.10
2018-01-08T02:26:15.687Z,93.20
2018-01-08T02:28:43.276Z,93.20
2018-01-08T02:31:10.837Z,93.30
2018-01-08T02:33:38.404Z,93.00
2018-01-08T02:36:05.967Z,92.90
2018-01-08T02:38:33.544Z,92.80
2018-01-08T02:41:01.111Z,92.80
2018-01-08T02:43:28.652Z,92.70
2018-01-08T02:45:56.984Z,92.90
2018-01-08T02:48:24.525Z,92.90
2018-01-08T02:50:52.087Z,92.90
2018-01-08T02:53:20.392Z,93.00
2018-01-08T02:55:48.034Z,93.00
2018-01-08T02:58:16.355Z,93.20
2018-01-08T03:00:43.991Z,93.20
2018-01-08T03:03:11.535Z,93.20
2018-01-08T03:05:39.071Z,93.30
2018-01-08T03:08:06.631Z,93.20
2018-01-08T03:10:34.976Z,93.30
2018-01-08T03:13:02.569Z,93.30
2018-01-08T03:15:30.128Z,93.20
2018-01-08T03:17:57.687Z,93.20
2018-01-08T03:20:25.228Z,93.20
2018-01-08T03:22:52.788Z,93.20
2018-01-08T03:25:20.372Z,93.20
2018-01-08T03:27:47.986Z,93.00
2018-01-08T03:30:15.545Z,93.00
2018-01-08T03:32:43.148Z,93.10
2018-01-08T03:35:10.693Z,93.20
2018-01-08T03:37:38.254Z,93.00
2018-01-08T03:40:05.826Z,93.30
2018-01-08T03:42:33.393Z,93.20
2018-01-08T03:45:00.988Z,93.20
2018-01-08T03:47:28.582Z,93.30
2018-01-08T03:49:56.210Z,93.30
2018-01-08T03:52:23.768Z,93.30
2018-01-08T03:54:51.333Z,93.30
2018-01-08T03:57:18.876Z,93.30
2018-01-08T03:59:47.214Z,93.30
2018-01-08T04:02:14.766Z,93.30
2018-01-08T04:04:42.336Z,93.10
2018-01-08T04:07:09.879Z,93.00
2018-01-08T04:09:38.224Z,93.00
2018-01-08T04:12:05.774Z,92.80
2018-01-08T04:14:33.323Z,92.70
2018-01-08T04:17:01.703Z,92.40
2018-01-08T04:19:29.268Z,92.40
2018-01-08T04:21:57.676Z,92.70
2018-01-08T04:24:26.005Z,92.80
2018-01-08T04:26:53.575Z,92.80
2018-01-08T04:29:21.939Z,92.90
2018-01-08T04:31:49.524Z,93.00
2018-01-08T04:34:17.091Z,93.10
2018-01-08T04:36:44.696Z,93.10
2018-01-08T04:39:12.312Z,93.10
2018-01-08T04:41:40.656Z,93.20
2018-01-08T04:44:08.236Z,93.20
2018-01-08T04:46:35.816Z,93.10
2018-01-08T04:49:03.360Z,93.00
2018-01-08T04:51:31.695Z,93.00
2018-01-08T04:53:59.315Z,93.00
2018-01-08T04:56:26.860Z,93.10
2018-01-08T04:58:55.193Z,93.20
2018-01-08T05:01:22.734Z,93.20
2018-01-08T05:03:50.300Z,93.30
2018-01-08T05:06:17.843Z,93.30
2018-01-08T05:08:45.460Z,93.20
2018-01-08T05:11:13.008Z,93.00
2018-01-08T05:13:41.352Z,92.90
2018-01-08T05:16:08.901Z,92.90
2018-01-08T05:18:36.474Z,93.00
2018-01-08T05:21:04.048Z,93.30
2018-01-08T05:23:31.613Z,93.10
2018-01-08T05:25:59.175Z,93.00
2018-01-08T05:28:26.731Z,93.10
2018-01-08T05:30:55.076Z,93.10
2018-01-08T05:33:22.663Z,93.10
2018-01-08T05:35:50.223Z,93.10
2018-01-08T05:38:17.774Z,93.10
2018-01-08T05:40:45.333Z,93.10
2018-01-08T05:43:12.887Z,93.10
2018-01-08T05:45:40.442Z,93.10
2018-01-08T05:48:08.777Z,92.60
2018-01-08T05:50:36.336Z,92.60
2018-01-08T05:53:03.879Z,92.60
2018-01-08T05:55:32.217Z,92.80
2018-01-08T05:57:59.767Z,92.80
2018-01-08T06:00:27.339Z,92.90
2018-01-08T06:02:54.900Z,92.90
2018-01-08T06:05:22.444Z,92.90
2018-01-08T06:07:50.778Z,92.60
2018-01-08T06:10:18.339Z,92.60
2018-01-08T06:12:45.928Z,92.70
2018-01-08T06:15:13.496Z,92.90
2018-01-08T06:17:41.063Z,92.90
2018-01-08T06:20:08.617Z,92.90
2018-01-08T06:22:36.196Z,92.90
2018-01-08T06:25:03.768Z,92.90
2018-01-08T06:27:31.358Z,92.80
2018-01-08T06:29:58.940Z,92.80
2018-01-08T06:32:26.499Z,92.70
2018-01-08T06:34:54.075Z,92.30
2018-01-08T06:37:21.725Z,92.30
2018-01-08T06:39:49.289Z,92.30
2018-01-08T06:42:16.832Z,92.30
2018-01-08T06:44:44.399Z,92.60
2018-01-08T06:47:11.963Z,92.80
2018-01-08T06:49:39.525Z,92.80
2018-01-08T06:52:07.100Z,92.50
2018-01-08T06:54:34.663Z,92.20
2018-01-08T06:57:02.233Z,92.20
2018-01-08T06:59:29.823Z,92.40
2018-01-08T07:01:57.384Z,92.60
2018-01-08T07:04:24.959Z,92.90
2018-01-08T07:06:52.518Z,92.90
2018-01-08T07:09:20.082Z,92.90
2018-01-08T07:11:47.653Z,92.90
2018-01-08T07:14:15.216Z,92.90
2018-01-08T07:16:42.796Z,92.90
2018-01-08T07:19:10.360Z,92.90
2018-01-08T07:21:37.923Z,92.90
2018-01-08T07:24:05.500Z,92.70
2018-01-08T07:26:33.101Z,92.50
2018-01-08T07:29:00.655Z,92.50
2018-01-08T07:31:28.215Z,92.60
2018-01-08T07:33:55.792Z,92.70
2018-01-08T07:36:23.377Z,92.90
2018-01-08T07:38:50.971Z,92.90
2018-01-08T07:41:18.541Z,92.60
2018-01-08T07:43:46.115Z,92.10
2018-01-08T07:46:13.659Z,92.10
2018-01-08T07:48:41.242Z,91.90
2018-01-08T07:51:08.794Z,91.40
2018-01-08T07:53:36.359Z,91.70
2018-01-08T07:56:03.904Z,92.00
2018-01-08T07:58:32.236Z,92.40
2018-01-08T08:00:59.781Z,92.40
2018-01-08T08:03:27.372Z,92.30
2018-01-08T08:05:54.919Z,91.80
2018-01-08T08:08:22.480Z,91.70
2018-01-08T08:10:50.803Z,92.20
2018-01-08T08:13:18.384Z,92.20
2018-01-08T08:15:45.927Z,92.30
2018-01-08T08:18:13.504Z,92.30
2018-01-08T08:20:41.110Z,91.80
2018-01-08T08:23:09.471Z,91.70
2018-01-08T08:25:37.031Z,91.70
2018-01-08T08:28:04.585Z,91.90
2018-01-08T08:30:32.913Z,92.40
2018-01-08T08:33:00.465Z,92.30
2018-01-08T08:35:28.077Z,92.40
2018-01-08T08:37:55.703Z,92.30
2018-01-08T08:40:23.303Z,92.40
2018-01-08T08:42:50.863Z,92.50
2018-01-08T08:45:18.456Z,92.50
2018-01-08T08:47:46.032Z,92.40
2018-01-08T08:50:13.639Z,92.40
2018-01-08T08:52:41.184Z,92.40
2018-01-08T08:55:08.739Z,92.40
2018-01-08T08:57:36.312Z,92.10
2018-01-08T09:00:03.851Z,92.00
2018-01-08T09:02:31.423Z,91.70
2018-01-08T09:04:58.984Z,91.80
2018-01-08T09:07:27.328Z,91.80
2018-01-08T09:09:54.862Z,91.80
2018-01-08T09:12:22.428Z,91.70
2018-01-08T09:14:49.984Z,91.70
2018-01-08T09:17:18.315Z,91.60
2018-01-08T09:19:45.884Z,91.60
2018-01-08T09:22:13.478Z,91.50
2018-01-08T09:24:41.078Z,91.60
2018-01-08T09:27:08.619Z,91.60
2018-01-08T09:29:36.166Z,91.60
2018-01-08T09:32:03.732Z,91.60
2018-01-08T09:34:31.308Z,91.60
2018-01-08T09:36:58.872Z,91.40
2018-01-08T09:39:26.415Z,91.40
2018-01-08T09:41:54.728Z,91.40
2018-01-08T09:44:22.293Z,91.10
2018-01-08T09:46:49.842Z,91.00
2018-01-08T09:49:17.432Z,90.90
2018-01-08T09:51:45.740Z,90.90
2018-01-08T09:54:13.307Z,90.90
2018-01-08T09:56:40.860Z,90.70
2018-01-08T09:59:09.190Z,90.10
2018-01-08T10:01:36.731Z,90.10
2018-01-08T10:04:16.096Z,89.70
2018-01-08T10:06:55.397Z,89.10
2018-01-08T10:09:34.779Z,89.20
2018-01-08T10:12:14.086Z,89.20
2018-01-08T10:14:53.437Z,88.60
2018-01-08T10:17:32.648Z,88.20
2018-01-08T10:20:00.239Z,88.10
2018-01-08T10:22:27.799Z,87.80
2018-01-08T10:24:55.366Z,87.70
2018-01-08T10:27:22.944Z,87.10
2018-01-08T10:29:50.516Z,86.80
2018-01-08T10:32:18.089Z,86.70
2018-01-08T10:34:45.651Z,86.80
2018-01-08T10:37:13.227Z,86.10
2018-01-08T10:39:40.800Z,86.20
2018-01-08T10:42:14.090Z,86.10
2018-01-08T10:44:47.233Z,85.70
2018-01-08T10:47:20.502Z,84.50
2018-01-08T10:49:53.627Z,83.70
2018-01-08T10:52:20.724Z,83.30
2018-01-08T10:54:49.948Z,83.20
2018-01-08T10:57:17.548Z,83.20
2018-01-08T10:59:45.089Z,83.60
2018-01-08T11:02:19.055Z,82.90
2018-01-08T11:04:46.592Z,82.70
2018-01-08T11:07:14.151Z,82.40
2018-01-08T11:09:42.455Z,82.70
2018-01-08T11:12:10.021Z,82.60
2018-01-08T11:14:38.328Z,80.80
2018-01-08T11:17:05.887Z,80.80
2018-01-08T11:19:33.425Z,82.20
2018-01-08T11:22:01.007Z,80.80
2018-01-08T11:24:29.434Z,77.80
2018-01-08T11:26:56.975Z,77.10
2018-01-08T11:29:25.395Z,76.30
2018-01-08T11:31:52.935Z,76.30
2018-01-08T11:34:21.256Z,78.40
2018-01-08T11:36:48.815Z,78.00
2018-01-08T11:39:16.378Z,77.90
2018-01-08T11:41:44.682Z,76.80
2018-01-08T11:44:12.247Z,76.80
2018-01-08T11:46:40.584Z,75.00
2018-01-08T11:49:08.152Z,74.90
2018-01-08T11:51:35.691Z,75.40
2018-01-08T11:54:03.251Z,76.10
2018-01-08T11:56:31.555Z,75.50
2018-01-08T11:58:59.116Z,75.50
2018-01-08T12:01:26.664Z,75.20
2018-01-08T12:03:54.994Z,75.00
2018-01-08T12:06:22.539Z,75.60
2018-01-08T12:08:50.880Z,75.20
2018-01-08T12:11:18.435Z,75.20
2018-01-08T12:13:45.984Z,75.60
2018-01-08T12:16:13.544Z,75.60
2018-01-08T12:18:41.853Z,77.00
2018-01-08T12:21:09.451Z,77.00
2018-01-08T12:23:37.762Z,76.70
2018-01-08T12:26:06.874Z,76.20
2018-01-08T12:28:35.203Z,75.10
2018-01-08T12:31:02.762Z,75.10
2018-01-08T12:33:31.095Z,75.00
2018-01-08T12:35:58.659Z,75.60
2018-01-08T12:38:26.206Z,73.60
2018-01-08T12:40:53.763Z,73.40
2018-01-08T12:43:22.075Z,71.70
2018-01-08T12:45:49.608Z,71.70
2018-01-08T12:48:17.171Z,71.00
2018-01-08T12:50:44.711Z,71.80
2018-01-08T12:53:12.283Z,72.10
2018-01-08T12:55:39.874Z,71.80
2018-01-08T12:58:08.239Z,72.10
2018-01-08T13:00:35.789Z,72.10
2018-01-08T13:03:03.348Z,71.00
2018-01-08T13:05:31.647Z,70.00
2018-01-08T13:07:59.199Z,70.00
2018-01-08T13:10:27.499Z,69.90
2018-01-08T13:12:55.069Z,69.90
2018-01-08T13:15:23.368Z,70.20
2018-01-08T13:17:50.963Z,70.10
2018-01-08T13:20:18.514Z,69.80
2018-01-08T13:22:46.080Z,70.70
2018-01-08T13:25:13.619Z,69.20
2018-01-08T13:27:41.163Z,70.50
2018-01-08T13:30:08.735Z,71.60
2018-01-08T13:32:36.274Z,72.70
2018-01-08T13:35:03.839Z,72.40
2018-01-08T13:37:31.395Z,71.50
2018-01-08T13:39:59.723Z,72.40
2018-01-08T13:42:27.277Z,72.40
2018-01-08T13:44:54.844Z,72.80
2018-01-08T13:47:22.383Z,73.50
2018-01-08T13:49:49.943Z,73.30
2018-01-08T13:52:17.482Z,73.60
2018-01-08T13:54:45.042Z,74.00
2018-01-08T13:57:12.579Z,74.20
2018-01-08T13:59:40.892Z,75.20
2018-01-08T14:02:08.451Z,75.20
2018-01-08T14:04:36.756Z,75.60
2018-01-08T14:07:12.606Z,76.30
2018-01-08T14:09:40.939Z,75.40
2018-01-08T14:12:08.505Z,75.40
2018-01-08T14:14:36.048Z,75.60
2018-01-08T14:17:03.619Z,75.90
2018-01-08T14:19:31.204Z,75.80
2018-01-08T14:21:58.792Z,76.00
2018-01-08T14:24:26.331Z,76.30
2018-01-08T14:26:53.900Z,76.80
2018-01-08T14:29:22.212Z,77.80
2018-01-08T14:31:49.789Z,77.80
2018-01-08T14:34:17.362Z,78.30
2018-01-08T14:36:44.948Z,78.90
2018-01-08T14:39:12.492Z,79.40
2018-01-08T14:41:40.038Z,79.80
2018-01-08T14:44:08.365Z,80.80
2018-01-08T14:46:35.907Z,80.70
2018-01-08T14:49:04.231Z,81.00
2018-01-08T14:51:31.788Z,81.00
2018-01-08T14:53:59.360Z,81.10
2018-01-08T14:56:26.899Z,81.20
2018-01-08T14:58:55.223Z,82.30
2018-01-08T15:01:22.809Z,81.80
2018-01-08T15:03:50.378Z,82.00
2018-01-08T15:06:17.963Z,82.30
2018-01-08T15:08:45.536Z,82.20
2018-01-08T15:11:13.086Z,82.20
2018-01-08T15:13:40.656Z,82.20
2018-01-08T15:16:08.232Z,82.30
2018-01-08T15:18:35.783Z,82.30
2018-01-08T15:21:03.345Z,82.30
2018-01-08T15:23:30.941Z,82.00
2018-01-08T15:25:58.506Z,82.30
2018-01-08T15:28:26.061Z,82.30
2018-01-08T15:30:53.650Z,82.20
2018-01-08T15:33:21.213Z,82.10
2018-01-08T15:35:48.793Z,82.00
2018-01-08T15:38:16.372Z,82.00
2018-01-08T15:40:43.927Z,81.70
2018-01-08T15:43:11.475Z,81.50
2018-01-08T15:45:39.048Z,81.40
2018-01-08T15:48:06.621Z,81.40
2018-01-08T15:50:34.196Z,81.10
2018-01-08T15:53:02.502Z,81.00
2018-01-08T15:55:30.810Z,81.00
2018-01-08T15:57:58.382Z,81.00
2018-01-08T16:00:25.924Z,80.90
2018-01-08T16:02:54.251Z,80.60
2018-01-08T16:05:21.862Z,80.60
2018-01-08T16:07:49.413Z,80.60
2018-01-08T16:10:17.788Z,80.60
2018-01-08T16:12:45.407Z,80.60
2018-01-08T16:15:12.944Z,80.70
2018-01-08T16:17:40.513Z,80.70
2018-01-08T16:20:08.051Z,80.80
2018-01-08T16:22:35.636Z,80.80
2018-01-08T16:25:03.175Z,80.70
2018-01-08T16:27:31.552Z,80.10
2018-01-08T16:29:59.073Z,80.00
2018-01-08T16:32:26.616Z,80.30
2018-01-08T16:34:54.944Z,78.90
2018-01-08T16:37:22.492Z,78.90
2018-01-08T16:39:50.052Z,78.40
2018-01-08T16:42:17.596Z,77.90
2018-01-08T16:44:45.168Z,77.60
2018-01-08T16:47:12.727Z,77.10
2018-01-08T16:49:40.291Z,76.80
2018-01-08T16:52:07.835Z,76.40
2018-01-08T16:54:35.397Z,76.10
2018-01-08T16:57:02.949Z,75.60
2018-01-08T16:59:31.366Z,74.60
2018-01-08T17:01:58.932Z,74.50
2018-01-08T17:04:26.487Z,74.40
2018-01-08T17:06:54.041Z,74.00
2018-01-08T17:09:22.364Z,73.40
2018-01-08T17:11:49.903Z,73.30
2018-01-08T17:14:17.450Z,72.90
2018-01-08T17:16:45.014Z,72.40
2018-01-08T17:19:12.557Z,72.20
2018-01-08T17:21:40.120Z,71.40
2018-01-08T17:24:07.676Z,70.80
2018-01-08T17:26:36.004Z,70.10
2018-01-08T17:29:03.544Z,70.10
2018-01-08T17:31:31.103Z,69.20
2018-01-08T17:33:59.415Z,69.50
2018-01-08T17:36:26.976Z,69.40
2018-01-08T17:38:54.528Z,69.50
2018-01-08T17:41:22.859Z,69.60
2018-01-08T17:43:50.402Z,69.60
2018-01-08T17:46:18.708Z,68.70
2018-01-08T17:48:46.283Z,68.70
2018-01-08T17:51:13.824Z,69.10
2018-01-08T17:53:42.157Z,69.10
2018-01-08T17:56:09.698Z,69.10
2018-01-08T17:58:37.263Z,68.90
2018-01-08T18:01:05.570Z,68.50
2018-01-08T18:03:33.131Z,68.40
2018-01-08T18:06:00.684Z,68.30
2018-01-08T18:08:29.032Z,68.70
2018-01-08T18:10:56.571Z,68.50
2018-01-08T18:13:24.128Z,68.70
2018-01-08T18:15:51.793Z,68.70
2018-01-08T18:18:19.498Z,68.20
2018-01-08T18:20:47.061Z,68.40
2018-01-08T18:23:14.605Z,68.50
2018-01-08T18:25:42.931Z,69.80
2018-01-08T18:28:10.459Z,69.70
2018-01-08T18:30:38.025Z,70.20
2018-01-08T18:35:37.556Z,70.60
2018-01-08T18:38:05.114Z,70.90
2018-01-08T18:40:32.687Z,71.50
2018-01-08T18:43:00.236Z,71.60
2018-01-08T18:45:27.804Z,72.00
2018-01-08T18:47:55.345Z,72.00
2018-01-08T18:50:22.904Z,71.80
2018-01-08T18:52:50.457Z,71.40
2018-01-08T18:55:18.024Z,71.00
2018-01-08T18:57:45.560Z,70.70
2018-01-08T19:00:13.126Z,70.70
2018-01-08T19:02:40.666Z,70.60
2018-01-08T19:05:08.206Z,70.40
2018-01-08T19:07:35.771Z,69.90
2018-01-08T19:10:03.320Z,69.30
2018-01-08T19:12:30.892Z,68.80
2018-01-08T19:14:58.631Z,68.40
2018-01-08T19:17:26.193Z,68.30
2018-01-08T19:19:53.732Z,68.50
2018-01-08T19:22:21.291Z,68.70
2018-01-08T19:24:48.835Z,68.80
2018-01-08T19:27:17.165Z,68.60
2018-01-08T19:29:44.708Z,68.60
2018-01-08T19:32:12.266Z,68.80
2018-01-08T19:34:40.568Z,68.40
2018-01-08T19:37:08.132Z,68.30
2018-01-08T19:39:35.683Z,68.10
2018-01-08T19:42:03.992Z,68.10
2018-01-08T19:44:31.616Z,68.00
2018-01-08T19:46:59.929Z,67.50
2018-01-08T19:49:27.489Z,67.50
2018-01-08T19:51:55.032Z,68.10
2018-01-08T19:54:22.599Z,67.00
2018-01-08T19:56:50.140Z,67.00
2018-01-08T19:59:17.724Z,66.60
2018-01-08T20:01:45.271Z,66.60
2018-01-08T20:04:13.606Z,66.30
2018-01-08T20:06:41.148Z,66.20
2018-01-08T20:09:08.772Z,65.80
2018-01-08T20:11:36.311Z,65.90
2018-01-08T20:14:03.875Z,66.00
2018-01-08T20:16:33.468Z,66.00
2018-01-08T20:19:01.803Z,66.00
2018-01-08T20:21:29.372Z,66.00
2018-01-08T20:23:56.936Z,65.70
2018-01-08T20:26:24.498Z,65.90
2018-01-08T20:28:52.040Z,66.10
2018-01-08T20:31:20.363Z,66.50
2018-01-08T20:33:47.906Z,66.40
2018-01-08T20:36:16.243Z,67.00
2018-01-08T20:38:43.789Z,66.90
2018-01-08T20:41:11.361Z,67.00
2018-01-08T20:43:40.432Z,67.20
2018-01-08T20:46:08.142Z,67.40
2018-01-08T20:48:35.675Z,67.40
2018-01-08T20:51:03.237Z,67.40
2018-01-08T20:53:31.463Z,67.80
2018-01-08T20:56:00.024Z,67.60
2018-01-08T20:58:27.666Z,67.60
2018-01-08T21:00:55.296Z,67.50
2018-01-08T21:03:22.932Z,67.60
2018-01-08T21:05:50.474Z,68.20
2018-01-08T21:08:18.958Z,68.00
2018-01-08T21:10:46.514Z,68.00
2018-01-08T21:13:14.078Z,68.30
2018-01-08T21:15:42.379Z,69.00
2018-01-08T21:18:09.934Z,69.00
2018-01-08T21:20:38.250Z,69.20
2018-01-08T21:23:05.865Z,69.20
2018-01-08T21:25:33.415Z,69.50
2018-01-08T21:28:01.773Z,69.80
2018-01-08T21:30:29.312Z,69.80
2018-01-08T21:32:56.863Z,70.20
2018-01-08T21:35:24.423Z,70.70
2018-01-08T21:37:51.958Z,71.00
2018-01-08T21:40:19.632Z,71.40
2018-01-08T21:42:47.196Z,71.70
2018-01-08T21:45:15.531Z,72.40
2018-01-08T21:47:43.075Z,72.40
2018-01-08T21:50:10.641Z,72.50
2018-01-08T21:52:38.181Z,72.70
2018-01-08T21:55:05.752Z,72.90
2018-01-08T21:57:33.303Z,73.70
2018-01-08T22:00:00.867Z,73.10
2018-01-08T22:02:28.419Z,73.40
2018-01-08T22:04:55.980Z,73.60
2018-01-08T22:07:23.519Z,73.70
2018-01-08T22:09:51.871Z,74.00
2018-01-08T22:12:19.410Z,74.00
2018-01-08T22:14:46.961Z,74.10
2018-01-08T22:17:15.297Z,73.70
2018-01-08T22:19:42.836Z,73.70
2018-01-08T22:22:10.396Z,73.30
2018-01-08T22:24:38.696Z,73.40
2018-01-08T22:27:06.272Z,73.30
2018-01-08T22:29:33.820Z,73.40
2018-01-08T22:32:02.143Z,72.60
2018-01-08T22:34:29.709Z,72.50
2018-01-08T22:36:57.293Z,72.70
2018-01-08T22:39:24.834Z,72.00
2018-01-08T22:41:53.156Z,70.70
2018-01-08T22:44:20.689Z,70.70
2018-01-08T22:46:49.024Z,70.10
2018-01-08T22:49:16.582Z,70.70
2018-01-08T22:51:44.125Z,69.70
2018-01-08T22:54:12.444Z,68.50
2018-01-08T22:56:39.991Z,68.40
2018-01-08T22:59:07.562Z,68.30
2018-01-08T23:01:35.114Z,68.10
2018-01-08T23:04:03.762Z,68.00
2018-01-08T23:06:31.320Z,67.90
2018-01-08T23:08:58.893Z,67.80
2018-01-08T23:11:26.436Z,67.40
2018-01-08T23:13:54.760Z,67.90
2018-01-08T23:16:22.316Z,67.80
2018-01-08T23:18:49.888Z,67.50
2018-01-08T23:21:17.439Z,67.50
2018-01-08T23:23:45.783Z,67.80
2018-01-08T23:26:13.343Z,67.90
2018-01-08T23:28:40.888Z,67.90
2018-01-08T23:31:09.206Z,68.10
2018-01-08T23:33:36.755Z,68.00
2018-01-08T23:36:04.316Z,68.30
2018-01-08T23:38:31.856Z,68.30
2018-01-08T23:40:59.419Z,68.40
2018-01-08T23:43:26.968Z,68.30
2018-01-08T23:45:54.529Z,68.30
2018-01-08T23:48:22.072Z,69.00
2018-01-08T23:50:49.654Z,69.20
2018-01-08T23:53:17.207Z,69.50
2018-01-08T23:55:45.547Z,69.70
2018-01-08T23:58:13.087Z,69.60
